Relief — WDC8380 — position and weather

sailwx.info

Track history (hours):
 
Tides and Currents Weather Stations Pressure Air Temp Water Temp Dewpoint Dewpoint Depression Visibility Wind Speed Wind Dir Waves Ship Positions

Relief

Owner: VIRGINIA PILOT BOAT CORPORATION, VIRGINIA BEACH, VA. More information available from US FCC via Universal Licensing System and Coast Guard Vessel Documentation Center.

Last reported at 2018-Jul-17 10:10 UTC. Time now 2018-Jul-17 11:25 UTC.
Position N 45°39' W 122°45'.

Length 13 m; draft 1 m.

Type: Pilot. MMSI: 367086140.

Date/timePositionNaut miles runAvg speedWind from/ knotsBaromVisibWave heightAir tempDewpointWater temp
2018-Jul-17 10:10N 45°39' W 122°45'0 0.0
2018-Jul-17 09:55N 45°39' W 122°45'0 0.0
2018-Jul-17 09:10N 45°39' W 122°45'0 2.4
2018-Jul-17 09:00N 45°39' W 122°45'3 6.9
2018-Jul-17 08:30N 45°42' W 122°46'4 0.1
2018-Jul-15 15:58N 45°39' W 122°45'0 0.0
2018-Jul-15 15:22N 45°39' W 122°45'0 0.0
2018-Jul-15 14:55N 45°39' W 122°45'0 0.0
2018-Jul-15 14:25N 45°39' W 122°45'0 0.0
2018-Jul-15 13:58N 45°39' W 122°45'0 0.0
2018-Jul-15 13:28N 45°39' W 122°45'0 0.0
2018-Jul-15 12:58N 45°39' W 122°45'0 0.0
2018-Jul-15 12:28N 45°39' W 122°45'0 0.0
2018-Jul-15 11:55N 45°39' W 122°45'0 0.0
2018-Jul-15 11:28N 45°39' W 122°45'0 0.0
2018-Jul-15 10:58N 45°39' W 122°45'0 0.0
2018-Jul-15 10:19N 45°39' W 122°45'0 0.0
2018-Jul-15 09:58N 45°39' W 122°45'0 0.0
2018-Jul-15 09:22N 45°39' W 122°45'0 0.0
2018-Jul-15 08:52N 45°39' W 122°45'0 0.0
2018-Jul-15 08:28N 45°39' W 122°45'0 0.0
2018-Jul-15 07:58N 45°39' W 122°45'0 0.0
2018-Jul-15 07:28N 45°39' W 122°45'0 0.0
2018-Jul-15 06:55N 45°39' W 122°45'0 0.0
2018-Jul-15 06:25N 45°39' W 122°45'0 0.0
2018-Jul-15 05:58N 45°39' W 122°45'0 0.0
2018-Jul-15 05:19N 45°39' W 122°45'0 0.0
2018-Jul-15 04:58N 45°39' W 122°45'0 0.0
2018-Jul-15 04:28N 45°39' W 122°45'0 0.0
2018-Jul-15 03:58N 45°39' W 122°45'0 0.0
2018-Jul-15 03:28N 45°39' W 122°45'0 0.0
2018-Jul-15 02:58N 45°39' W 122°45'0 0.0
2018-Jul-15 02:28N 45°39' W 122°45'0 0.0
2018-Jul-15 01:49N 45°39' W 122°45'0 0.0
2018-Jul-15 01:22N 45°39' W 122°45'0 0.0
2018-Jul-15 00:58N 45°39' W 122°45'0 0.0
2018-Jul-15 00:25N 45°39' W 122°45'0 0.0
2018-Jul-14 23:58N 45°39' W 122°45'0 0.0
2018-Jul-14 22:58N 45°39' W 122°45'0 0.0
2018-Jul-14 22:28N 45°39' W 122°45'0 0.0
2018-Jul-14 21:58N 45°39' W 122°45'2 3.3
2018-Jul-14 21:30N 45°38' W 122°43'2 2.7
2018-Jul-14 20:56N 45°39' W 122°45'0 0.0
2018-Jul-14 20:23N 45°39' W 122°45'0 0.0
2018-Jul-14 19:59N 45°39' W 122°45'0 0.0
2018-Jul-14 19:23N 45°39' W 122°45'0 0.0
2018-Jul-14 18:56N 45°39' W 122°45'0 0.0
2018-Jul-14 18:29N 45°39' W 122°45'0 0.0
2018-Jul-14 17:59N 45°39' W 122°45'0 0.0
2018-Jul-14 17:29N 45°39' W 122°45'0 0.0
2018-Jul-14 16:59N 45°39' W 122°45'0 0.0
2018-Jul-14 16:14N 45°39' W 122°45'0 0.0
2018-Jul-14 15:59N 45°39' W 122°45'0 0.0
2018-Jul-14 15:29N 45°39' W 122°45'0 0.0
2018-Jul-14 14:56N 45°39' W 122°45'0 0.0
2018-Jul-14 13:59N 45°39' W 122°45'0 0.0
2018-Jul-14 13:29N 45°39' W 122°45'0 0.0
2018-Jul-14 12:56N 45°39' W 122°45'0 0.0
2018-Jul-14 12:17N 45°39' W 122°45'0 0.0
2018-Jul-14 11:59N 45°39' W 122°45'1 1.3
2018-Jul-14 11:30N 45°39' W 122°44'1 1.3
2018-Jul-14 10:51N 45°38' W 122°43'0 0.1
2018-Jul-14 10:29N 45°38' W 122°43'2 2.9
2018-Jul-14 09:58N 45°39' W 122°45'0 0.0
2018-Jul-14 09:13N 45°39' W 122°45'0 0.0
2018-Jul-14 08:52N 45°39' W 122°45'0 0.0
2018-Jul-14 08:28N 45°39' W 122°45'0 0.0
2018-Jul-14 07:55N 45°39' W 122°45'0 0.0
2018-Jul-14 07:22N 45°39' W 122°45'0 0.0
2018-Jul-14 06:49N 45°39' W 122°45'0 0.0
2018-Jul-14 06:28N 45°39' W 122°45'0 0.0
2018-Jul-14 05:58N 45°39' W 122°45'0 0.0
2018-Jul-14 05:25N 45°39' W 122°45'0 0.0
2018-Jul-14 04:07N 45°39' W 122°45'0 0.0
2018-Jul-14 03:58N 45°39' W 122°45'0 0.0
2018-Jul-14 03:25N 45°39' W 122°45'0 0.0
2018-Jul-14 02:52N 45°39' W 122°45'0 0.0
2018-Jul-14 02:28N 45°39' W 122°45'0 0.0
2018-Jul-14 01:37N 45°39' W 122°45'0 0.0
2018-Jul-14 01:22N 45°39' W 122°45'0 0.0
2018-Jul-14 00:58N 45°39' W 122°45'1 2.7
2018-Jul-14 00:30N 45°40' W 122°46'1 1.7
2018-Jul-13 23:48N 45°39' W 122°45'0 0.0
2018-Jul-13 23:27N 45°39' W 122°45'0 0.0
2018-Jul-13 22:57N 45°39' W 122°45'0 0.0
2018-Jul-13 22:24N 45°39' W 122°45'0 0.0
2018-Jul-13 22:00N 45°39' W 122°45'0 0.0
2018-Jul-13 21:30N 45°39' W 122°45'0 0.0
2018-Jul-13 21:00N 45°39' W 122°45'0 0.0
2018-Jul-13 20:15N 45°39' W 122°45'0 0.0
2018-Jul-13 20:00N 45°39' W 122°45'0 0.0
2018-Jul-13 19:30N 45°39' W 122°45'0 0.0
2018-Jul-13 19:00N 45°39' W 122°45'0 0.0
2018-Jul-13 18:30N 45°39' W 122°45'0 0.0
2018-Jul-13 17:58N 45°39' W 122°45'0 0.0
2018-Jul-13 17:30N 45°39' W 122°45'0 0.0
2018-Jul-13 16:54N 45°39' W 122°45'0 0.0
2018-Jul-13 16:27N 45°39' W 122°45'0 0.0
2018-Jul-13 15:51N 45°39' W 122°45'0 0.0
2018-Jul-13 15:30N 45°39' W 122°45'0 0.0
2018-Jul-13 14:59N 45°39' W 122°45'0 0.0
2018-Jul-13 13:51N 45°39' W 122°45'0 0.0
2018-Jul-13 13:30N 45°39' W 122°45'0 0.0
2018-Jul-13 12:51N 45°39' W 122°45'0 0.0
2018-Jul-13 12:18N 45°39' W 122°45'0 0.0
2018-Jul-13 12:00N 45°39' W 122°45'0 0.0
2018-Jul-13 11:18N 45°39' W 122°45'0 0.0
2018-Jul-13 10:54N 45°39' W 122°45'0 0.0
2018-Jul-13 10:30N 45°39' W 122°45'0 0.0
2018-Jul-13 10:00N 45°39' W 122°45'0 0.0
2018-Jul-13 09:27N 45°39' W 122°45'0 0.0
2018-Jul-13 08:59N 45°39' W 122°45'0 0.0
2018-Jul-13 08:30N 45°39' W 122°45'0 0.0
2018-Jul-13 07:57N 45°39' W 122°45'0 0.0
2018-Jul-13 07:30N 45°39' W 122°45'0 0.0
2018-Jul-13 06:53N 45°39' W 122°45'0 0.0
2018-Jul-13 06:24N 45°39' W 122°45'0 0.0
2018-Jul-13 05:56N 45°39' W 122°45'0 0.0
2018-Jul-13 05:24N 45°39' W 122°45'0 0.0
2018-Jul-13 04:57N 45°39' W 122°45'0 0.0
2018-Jul-13 04:29N 45°39' W 122°45'0 0.0
2018-Jul-13 04:00N 45°39' W 122°45'0 0.0
2018-Jul-13 03:30N 45°39' W 122°45'0 0.0
2018-Jul-13 03:00N 45°39' W 122°45'0 0.0
2018-Jul-13 02:24N 45°39' W 122°45'0 0.0
2018-Jul-13 01:57N 45°39' W 122°45'0 0.0
2018-Jul-13 00:39N 45°39' W 122°45'0 0.0
2018-Jul-13 00:26N 45°39' W 122°45'0 0.0
2018-Jul-12 23:48N 45°39' W 122°45'0 0.0
2018-Jul-12 23:21N 45°39' W 122°45'0 0.0
2018-Jul-12 22:50N 45°39' W 122°45'0 0.0
2018-Jul-12 22:30N 45°39' W 122°45'0 0.0
2018-Jul-12 22:00N 45°39' W 122°45'0 0.0
2018-Jul-12 21:09N 45°39' W 122°45'0 0.0
2018-Jul-12 20:56N 45°39' W 122°45'0 0.0
2018-Jul-12 20:29N 45°39' W 122°45'0 0.0
2018-Jul-12 19:32N 45°39' W 122°45'0 0.1
2018-Jul-12 19:27N 45°39' W 122°45'0 0.0
2018-Jul-12 18:56N 45°39' W 122°45'0 0.0
2018-Jul-12 18:20N 45°39' W 122°45'0 0.0
2018-Jul-12 17:56N 45°39' W 122°45'0 0.0
2018-Jul-12 17:18N 45°39' W 122°45'0 0.0
2018-Jul-12 16:56N 45°39' W 122°45'0 0.0
2018-Jul-12 16:30N 45°39' W 122°45'0 0.0
2018-Jul-12 15:57N 45°39' W 122°45'0 0.0
2018-Jul-12 15:26N 45°39' W 122°45'0 0.0
2018-Jul-12 14:44N 45°39' W 122°45'0 0.0
2018-Jul-12 14:14N 45°39' W 122°45'0 0.0
2018-Jul-12 13:53N 45°39' W 122°45'0 0.0
2018-Jul-12 13:24N 45°39' W 122°45'0 0.0
2018-Jul-12 13:00N 45°39' W 122°45'0 0.0
2018-Jul-12 12:09N 45°39' W 122°45'0 0.0
2018-Jul-12 12:00N 45°39' W 122°45'0 0.0
2018-Jul-12 11:27N 45°39' W 122°45'0 0.0
2018-Jul-12 10:33N 45°39' W 122°45'0 0.0
2018-Jul-12 10:20N 45°39' W 122°45'0 0.0
2018-Jul-12 09:45N 45°39' W 122°45'0 0.0
2018-Jul-12 09:29N 45°39' W 122°45'0 0.0
2018-Jul-12 08:44N 45°39' W 122°45'0 0.0
2018-Jul-12 07:39N 45°39' W 122°45'0 0.0
2018-Jul-12 07:29N 45°39' W 122°45'0 0.0
2018-Jul-12 06:56N 45°39' W 122°45'0 0.0
2018-Jul-12 06:27N 45°39' W 122°45'0 0.0
2018-Jul-12 06:00N 45°39' W 122°45'0 0.0
2018-Jul-12 05:20N 45°39' W 122°45'0 0.0
2018-Jul-12 04:50N 45°39' W 122°45'0 0.0
2018-Jul-12 04:15N 45°39' W 122°45'0 0.0
2018-Jul-12 03:44N 45°39' W 122°45'0 0.0
2018-Jul-12 02:44N 45°39' W 122°45'0 0.0
2018-Jul-12 02:20N 45°39' W 122°45'0 0.0
2018-Jul-12 01:53N 45°39' W 122°45'0 0.0
2018-Jul-12 01:26N 45°39' W 122°45'0 0.0
2018-Jul-12 00:56N 45°39' W 122°45'0 0.0
2018-Jul-12 00:27N 45°39' W 122°45'0 0.0
2018-Jul-11 23:59N 45°39' W 122°45'0 0.0
2018-Jul-11 23:23N 45°39' W 122°45'0 0.0
2018-Jul-11 22:51N 45°39' W 122°45'0 0.0
2018-Jul-11 21:51N 45°39' W 122°45'0 0.0
2018-Jul-11 21:20N 45°39' W 122°45'0 0.0
2018-Jul-11 20:50N 45°39' W 122°45'0 0.0
2018-Jul-11 20:30N 45°39' W 122°45'0 0.0
2018-Jul-11 19:53N 45°39' W 122°45'0 0.0
2018-Jul-11 19:24N 45°39' W 122°45'0 0.0
2018-Jul-11 19:00N 45°39' W 122°45'0 0.0
2018-Jul-11 18:29N 45°39' W 122°45'0 0.0
2018-Jul-11 17:56N 45°39' W 122°45'0 0.0
2018-Jul-11 17:29N 45°39' W 122°45'0 0.0
2018-Jul-11 16:47N 45°39' W 122°45'0 0.0
2018-Jul-11 16:29N 45°39' W 122°45'0 0.0
2018-Jul-11 16:00N 45°39' W 122°45'0 0.0
2018-Jul-11 15:26N 45°39' W 122°45'0 0.0
2018-Jul-11 14:59N 45°39' W 122°45'0 0.0
2018-Jul-11 14:23N 45°39' W 122°45'0 0.0
2018-Jul-11 13:59N 45°39' W 122°45'0 0.0
2018-Jul-11 13:29N 45°39' W 122°45'0 0.0
2018-Jul-11 12:59N 45°39' W 122°45'0 0.0
2018-Jul-11 12:29N 45°39' W 122°45'0 0.0
2018-Jul-11 11:59N 45°39' W 122°45'0 0.0
2018-Jul-11 11:26N 45°39' W 122°45'0 0.0
2018-Jul-11 10:56N 45°39' W 122°45'0 0.0
2018-Jul-11 10:17N 45°39' W 122°45'0 0.0
2018-Jul-11 09:56N 45°39' W 122°45'0 0.0
2018-Jul-11 09:26N 45°39' W 122°45'0 0.0
2018-Jul-11 08:59N 45°39' W 122°45'0 0.0
2018-Jul-11 08:26N 45°39' W 122°45'0 0.0
2018-Jul-11 07:59N 45°39' W 122°45'0 0.0
2018-Jul-11 07:29N 45°39' W 122°45'0 0.0
2018-Jul-11 06:56N 45°39' W 122°45'0 0.0
2018-Jul-11 06:20N 45°39' W 122°45'0 0.0
2018-Jul-11 05:59N 45°39' W 122°45'0 0.0
2018-Jul-11 05:29N 45°39' W 122°45'0 0.0
2018-Jul-11 04:38N 45°39' W 122°45'0 0.0
2018-Jul-11 04:29N 45°39' W 122°45'0 0.0
2018-Jul-11 03:59N 45°39' W 122°45'0 0.0
2018-Jul-11 03:20N 45°39' W 122°45'0 0.0
2018-Jul-11 02:59N 45°39' W 122°45'0 0.0
2018-Jul-11 02:20N 45°39' W 122°45'0 0.0
2018-Jul-11 01:59N 45°39' W 122°45'0 0.0
2018-Jul-11 01:29N 45°39' W 122°45'0 0.0
2018-Jul-11 00:59N 45°39' W 122°45'0 0.0
2018-Jul-11 00:23N 45°39' W 122°45'0 0.0
2018-Jul-10 23:59N 45°39' W 122°45'0 0.0
2018-Jul-10 23:29N 45°39' W 122°45'0 0.0
2018-Jul-10 22:59N 45°39' W 122°45'0 0.0
2018-Jul-10 22:29N 45°39' W 122°45'0 0.0
2018-Jul-10 21:59N 45°39' W 122°45'0 0.0
2018-Jul-10 21:29N 45°39' W 122°45'0 0.0
2018-Jul-10 20:59N 45°39' W 122°45'0 0.0
2018-Jul-10 20:29N 45°39' W 122°45'0 0.0
2018-Jul-10 19:59N 45°39' W 122°45'0 0.0
2018-Jul-10 19:29N 45°39' W 122°45'0 0.0
2018-Jul-10 18:53N 45°39' W 122°45'0 0.0
2018-Jul-10 18:29N 45°39' W 122°45'0 0.0
2018-Jul-10 17:47N 45°39' W 122°45'0 0.0
2018-Jul-10 17:29N 45°39' W 122°45'0 0.0
2018-Jul-10 16:59N 45°39' W 122°45'0 0.0
2018-Jul-10 16:11N 45°39' W 122°45'0 0.0
2018-Jul-10 15:56N 45°39' W 122°45'0 0.0
2018-Jul-10 15:29N 45°39' W 122°45'0 0.0
2018-Jul-10 14:59N 45°39' W 122°45'0 0.0
2018-Jul-10 14:23N 45°39' W 122°45'0 0.0
2018-Jul-10 13:59N 45°39' W 122°45'0 0.0
2018-Jul-10 13:23N 45°39' W 122°45'0 0.0
2018-Jul-10 12:59N 45°39' W 122°45'0 0.0
2018-Jul-10 12:29N 45°39' W 122°45'0 0.0
2018-Jul-10 11:59N 45°39' W 122°45'0 0.0
2018-Jul-10 11:29N 45°39' W 122°45'0 0.0
2018-Jul-10 10:53N 45°39' W 122°45'0 0.0
2018-Jul-10 10:23N 45°39' W 122°45'0 0.0
2018-Jul-10 09:23N 45°39' W 122°45'0 0.0
2018-Jul-10 08:53N 45°39' W 122°45'0 0.0
2018-Jul-10 08:29N 45°39' W 122°45'0 0.0
2018-Jul-10 07:38N 45°39' W 122°45'0 0.0
2018-Jul-10 07:29N 45°39' W 122°45'0 0.0
2018-Jul-10 06:56N 45°39' W 122°45'0 0.0
2018-Jul-10 06:08N 45°39' W 122°45'0 0.1
2018-Jul-10 05:59N 45°39' W 122°45'0 0.0
2018-Jul-10 05:26N 45°39' W 122°45'0 0.0
2018-Jul-10 04:59N 45°39' W 122°45'0 0.0
2018-Jul-10 04:14N 45°39' W 122°45'0 0.0
2018-Jul-10 03:53N 45°39' W 122°45'0 0.0
2018-Jul-10 03:20N 45°39' W 122°45'0 0.0
2018-Jul-10 02:59N 45°39' W 122°45'0 0.0
2018-Jul-10 02:11N 45°39' W 122°45'0 0.0
2018-Jul-10 01:41N 45°39' W 122°45'0 0.0
2018-Jul-10 01:29N 45°39' W 122°45'0 0.0
2018-Jul-10 00:53N 45°39' W 122°45'0 0.0
2018-Jul-10 00:26N 45°39' W 122°45'0 0.0
2018-Jul-09 23:56N 45°39' W 122°45'0 0.0
2018-Jul-09 23:26N 45°39' W 122°45'0 0.0
2018-Jul-09 22:59N 45°39' W 122°45'0 0.0
2018-Jul-09 22:26N 45°39' W 122°45'0 0.0
2018-Jul-09 21:59N 45°39' W 122°45'0 0.0
2018-Jul-09 20:59N 45°39' W 122°45'0 0.0
2018-Jul-09 20:26N 45°39' W 122°45'0 0.0
2018-Jul-09 19:53N 45°39' W 122°45'0 0.0
2018-Jul-09 19:29N 45°39' W 122°45'0 0.0
2018-Jul-09 18:56N 45°39' W 122°45'0 0.0
2018-Jul-09 18:23N 45°39' W 122°45'0 0.0
2018-Jul-09 17:50N 45°39' W 122°45'0 0.0
2018-Jul-09 17:26N 45°39' W 122°45'0 0.0
2018-Jul-09 16:59N 45°39' W 122°45'0 0.0
2018-Jul-09 16:29N 45°39' W 122°45'0 0.0
2018-Jul-09 15:56N 45°39' W 122°45'0 0.0
2018-Jul-09 15:23N 45°39' W 122°45'0 0.0
2018-Jul-09 14:53N 45°39' W 122°45'0 0.0
2018-Jul-09 14:20N 45°39' W 122°45'0 0.0
2018-Jul-09 13:53N 45°39' W 122°45'0 0.0
2018-Jul-09 13:29N 45°39' W 122°45'0 0.0
2018-Jul-09 12:56N 45°39' W 122°45'0 0.0
2018-Jul-09 12:23N 45°39' W 122°45'0 0.0
2018-Jul-09 11:59N 45°39' W 122°45'0 0.0
2018-Jul-09 11:26N 45°39' W 122°45'0 0.0
2018-Jul-09 10:59N 45°39' W 122°45'0 0.0
2018-Jul-09 10:20N 45°39' W 122°45'0 0.0
2018-Jul-09 09:59N 45°39' W 122°45'0 0.0
2018-Jul-09 09:26N 45°39' W 122°45'0 0.0
2018-Jul-09 08:59N 45°39' W 122°45'0 0.0
2018-Jul-09 08:29N 45°39' W 122°45'0 0.0
2018-Jul-09 07:59N 45°39' W 122°45'0 0.0
2018-Jul-09 07:29N 45°39' W 122°45'0 0.0
2018-Jul-09 06:56N 45°39' W 122°45'0 0.0
2018-Jul-09 06:26N 45°39' W 122°45'0 0.0
2018-Jul-09 05:44N 45°39' W 122°45'0 0.0
2018-Jul-09 05:23N 45°39' W 122°45'0 0.0
2018-Jul-09 04:59N 45°39' W 122°45'1 2.2
2018-Jul-09 04:19N 45°38' W 122°43'0 0.0
2018-Jul-09 04:00N 45°38' W 122°43'0 0.1
2018-Jul-09 03:25N 45°38' W 122°43'1 2.7
2018-Jul-09 02:52N 45°39' W 122°45'0 0.0
2018-Jul-09 02:28N 45°39' W 122°45'0 0.0
2018-Jul-09 01:58N 45°39' W 122°45'0 0.0
2018-Jul-09 01:10N 45°39' W 122°45'0 0.0
2018-Jul-09 00:37N 45°39' W 122°45'0 0.0
2018-Jul-09 00:25N 45°39' W 122°45'0 0.0
2018-Jul-08 23:31N 45°39' W 122°45'0 0.0
2018-Jul-08 23:28N 45°39' W 122°45'0 0.0
2018-Jul-08 22:58N 45°39' W 122°45'0 0.0
2018-Jul-08 22:25N 45°39' W 122°45'0 0.0
2018-Jul-08 21:52N 45°39' W 122°45'0 0.0
2018-Jul-08 21:19N 45°39' W 122°45'0 0.0
2018-Jul-08 20:58N 45°39' W 122°45'0 0.0
2018-Jul-08 20:22N 45°39' W 122°45'0 0.0
2018-Jul-08 19:58N 45°39' W 122°45'0 0.0
2018-Jul-08 19:28N 45°39' W 122°45'0 0.0
2018-Jul-08 18:55N 45°39' W 122°45'0 0.0
2018-Jul-08 18:16N 45°39' W 122°45'0 0.0
2018-Jul-08 17:55N 45°39' W 122°45'0 0.0
2018-Jul-08 17:25N 45°39' W 122°45'0 0.0
2018-Jul-08 16:52N 45°39' W 122°45'0 0.0
2018-Jul-08 16:13N 45°39' W 122°45'0 0.0
2018-Jul-08 15:52N 45°39' W 122°45'0 0.0
2018-Jul-08 15:16N 45°39' W 122°45'0 0.0
2018-Jul-08 14:58N 45°39' W 122°45'0 0.0
2018-Jul-08 14:28N 45°39' W 122°45'0 0.0
2018-Jul-08 13:52N 45°39' W 122°45'0 0.0
2018-Jul-08 13:28N 45°39' W 122°45'0 0.0
2018-Jul-08 12:55N 45°39' W 122°45'0 0.0
2018-Jul-08 12:28N 45°39' W 122°45'0 0.0
2018-Jul-08 11:49N 45°39' W 122°45'0 0.0
2018-Jul-08 11:22N 45°39' W 122°45'0 0.0
2018-Jul-08 10:58N 45°39' W 122°45'0 0.0
2018-Jul-08 10:16N 45°39' W 122°45'0 0.0
2018-Jul-08 09:55N 45°39' W 122°45'0 0.0
2018-Jul-08 09:22N 45°39' W 122°45'0 0.0
2018-Jul-08 08:46N 45°39' W 122°45'0 0.0
2018-Jul-08 08:22N 45°39' W 122°45'0 0.0
2018-Jul-08 07:43N 45°39' W 122°45'0 0.0
2018-Jul-08 07:16N 45°39' W 122°45'413.7
2018-Jul-08 06:59N 45°42' W 122°46'4 7.4
2018-Jul-08 06:28N 45°39' W 122°45'0 0.0
2018-Jul-08 05:52N 45°39' W 122°45'0 0.0
2018-Jul-08 05:28N 45°39' W 122°45'0 0.0
2018-Jul-08 04:58N 45°39' W 122°45'0 0.0
2018-Jul-08 04:22N 45°39' W 122°45'0 0.0
2018-Jul-08 03:55N 45°39' W 122°45'0 0.0
2018-Jul-08 03:28N 45°39' W 122°45'0 0.0
2018-Jul-08 02:43N 45°39' W 122°45'0 0.0
2018-Jul-08 02:25N 45°39' W 122°45'0 0.0
2018-Jul-08 01:58N 45°39' W 122°45'4 8.1
2018-Jul-08 01:30N 45°37' W 122°40'2 3.9
2018-Jul-08 01:00N 45°36' W 122°38'0 0.2
2018-Jul-08 00:30N 45°36' W 122°38'0 0.0
2018-Jul-08 00:00N 45°36' W 122°38'2 4.8
2018-Jul-07 23:30N 45°37' W 122°41'1 1.1
2018-Jul-07 22:23N 45°36' W 122°40'0 0.0
2018-Jul-07 21:59N 45°36' W 122°40'0 0.0
2018-Jul-07 21:23N 45°36' W 122°40'0 0.0
2018-Jul-07 20:53N 45°36' W 122°40'1 1.8
2018-Jul-07 20:30N 45°37' W 122°39'1 1.9
2018-Jul-07 19:59N 45°37' W 122°41'3 6.5
2018-Jul-07 19:30N 45°39' W 122°45'4 5.9
2018-Jul-07 18:48N 45°43' W 122°46'414.2
2018-Jul-07 18:30N 45°39' W 122°45'0 0.1
2018-Jul-07 18:00N 45°39' W 122°45'0 0.0
2018-Jul-07 17:30N 45°39' W 122°45'0 0.0
2018-Jul-07 17:00N 45°39' W 122°45'0 0.0
2018-Jul-07 16:29N 45°39' W 122°45'0 0.0
2018-Jul-07 15:56N 45°39' W 122°45'0 0.0
2018-Jul-07 15:30N 45°39' W 122°45'0 0.0
2018-Jul-07 15:00N 45°39' W 122°45'0 0.0
2018-Jul-07 14:31N 45°39' W 122°45'0 0.0
2018-Jul-07 14:00N 45°39' W 122°45'0 0.0
2018-Jul-07 12:49N 45°39' W 122°45'0 0.0
2018-Jul-07 12:30N 45°39' W 122°45'0 0.0
2018-Jul-07 12:00N 45°39' W 122°45'0 0.1
2018-Jul-07 11:30N 45°39' W 122°45'0 0.1
2018-Jul-07 10:40N 45°39' W 122°45'0 0.0
2018-Jul-07 10:28N 45°39' W 122°45'  
Track history (hours):
 
Tides and Currents Weather Stations Pressure Air Temp Water Temp Dewpoint Dewpoint Depression Visibility Wind Speed Wind Dir Waves Ship Positions

Relief

Owner: VIRGINIA PILOT BOAT CORPORATION, VIRGINIA BEACH, VA. More information available from US FCC via Universal Licensing System and Coast Guard Vessel Documentation Center.

Last reported at 2018-Jul-17 10:10 UTC. Time now 2018-Jul-17 11:25 UTC.
Position N 45°39' W 122°45'.

Length 13 m; draft 1 m.

Type: Pilot. MMSI: 367086140.

Date/timePositionNaut miles runAvg speedWind from/ knotsBaromVisibWave heightAir tempDewpointWater temp
2018-Jul-17 10:10N 45°39' W 122°45'0 0.0
2018-Jul-17 09:55N 45°39' W 122°45'0 0.0
2018-Jul-17 09:10N 45°39' W 122°45'0 2.4
2018-Jul-17 09:00N 45°39' W 122°45'3 6.9
2018-Jul-17 08:30N 45°42' W 122°46'4 0.1
2018-Jul-15 15:58N 45°39' W 122°45'0 0.0
2018-Jul-15 15:22N 45°39' W 122°45'0 0.0
2018-Jul-15 14:55N 45°39' W 122°45'0 0.0
2018-Jul-15 14:25N 45°39' W 122°45'0 0.0
2018-Jul-15 13:58N 45°39' W 122°45'0 0.0
2018-Jul-15 13:28N 45°39' W 122°45'0 0.0
2018-Jul-15 12:58N 45°39' W 122°45'0 0.0
2018-Jul-15 12:28N 45°39' W 122°45'0 0.0
2018-Jul-15 11:55N 45°39' W 122°45'0 0.0
2018-Jul-15 11:28N 45°39' W 122°45'0 0.0
2018-Jul-15 10:58N 45°39' W 122°45'0 0.0
2018-Jul-15 10:19N 45°39' W 122°45'0 0.0
2018-Jul-15 09:58N 45°39' W 122°45'0 0.0
2018-Jul-15 09:22N 45°39' W 122°45'0 0.0
2018-Jul-15 08:52N 45°39' W 122°45'0 0.0
2018-Jul-15 08:28N 45°39' W 122°45'0 0.0
2018-Jul-15 07:58N 45°39' W 122°45'0 0.0
2018-Jul-15 07:28N 45°39' W 122°45'0 0.0
2018-Jul-15 06:55N 45°39' W 122°45'0 0.0
2018-Jul-15 06:25N 45°39' W 122°45'0 0.0
2018-Jul-15 05:58N 45°39' W 122°45'0 0.0
2018-Jul-15 05:19N 45°39' W 122°45'0 0.0
2018-Jul-15 04:58N 45°39' W 122°45'0 0.0
2018-Jul-15 04:28N 45°39' W 122°45'0 0.0
2018-Jul-15 03:58N 45°39' W 122°45'0 0.0
2018-Jul-15 03:28N 45°39' W 122°45'0 0.0
2018-Jul-15 02:58N 45°39' W 122°45'0 0.0
2018-Jul-15 02:28N 45°39' W 122°45'0 0.0
2018-Jul-15 01:49N 45°39' W 122°45'0 0.0
2018-Jul-15 01:22N 45°39' W 122°45'0 0.0
2018-Jul-15 00:58N 45°39' W 122°45'0 0.0
2018-Jul-15 00:25N 45°39' W 122°45'0 0.0
2018-Jul-14 23:58N 45°39' W 122°45'0 0.0
2018-Jul-14 22:58N 45°39' W 122°45'0 0.0
2018-Jul-14 22:28N 45°39' W 122°45'0 0.0
2018-Jul-14 21:58N 45°39' W 122°45'2 3.3
2018-Jul-14 21:30N 45°38' W 122°43'2 2.7
2018-Jul-14 20:56N 45°39' W 122°45'0 0.0
2018-Jul-14 20:23N 45°39' W 122°45'0 0.0
2018-Jul-14 19:59N 45°39' W 122°45'0 0.0
2018-Jul-14 19:23N 45°39' W 122°45'0 0.0
2018-Jul-14 18:56N 45°39' W 122°45'0 0.0
2018-Jul-14 18:29N 45°39' W 122°45'0 0.0
2018-Jul-14 17:59N 45°39' W 122°45'0 0.0
2018-Jul-14 17:29N 45°39' W 122°45'0 0.0
2018-Jul-14 16:59N 45°39' W 122°45'0 0.0
2018-Jul-14 16:14N 45°39' W 122°45'0 0.0
2018-Jul-14 15:59N 45°39' W 122°45'0 0.0
2018-Jul-14 15:29N 45°39' W 122°45'0 0.0
2018-Jul-14 14:56N 45°39' W 122°45'0 0.0
2018-Jul-14 13:59N 45°39' W 122°45'0 0.0
2018-Jul-14 13:29N 45°39' W 122°45'0 0.0
2018-Jul-14 12:56N 45°39' W 122°45'0 0.0
2018-Jul-14 12:17N 45°39' W 122°45'0 0.0
2018-Jul-14 11:59N 45°39' W 122°45'1 1.3
2018-Jul-14 11:30N 45°39' W 122°44'1 1.3
2018-Jul-14 10:51N 45°38' W 122°43'0 0.1
2018-Jul-14 10:29N 45°38' W 122°43'2 2.9
2018-Jul-14 09:58N 45°39' W 122°45'0 0.0
2018-Jul-14 09:13N 45°39' W 122°45'0 0.0
2018-Jul-14 08:52N 45°39' W 122°45'0 0.0
2018-Jul-14 08:28N 45°39' W 122°45'0 0.0
2018-Jul-14 07:55N 45°39' W 122°45'0 0.0
2018-Jul-14 07:22N 45°39' W 122°45'0 0.0
2018-Jul-14 06:49N 45°39' W 122°45'0 0.0
2018-Jul-14 06:28N 45°39' W 122°45'0 0.0
2018-Jul-14 05:58N 45°39' W 122°45'0 0.0
2018-Jul-14 05:25N 45°39' W 122°45'0 0.0
2018-Jul-14 04:07N 45°39' W 122°45'0 0.0
2018-Jul-14 03:58N 45°39' W 122°45'0 0.0
2018-Jul-14 03:25N 45°39' W 122°45'0 0.0
2018-Jul-14 02:52N 45°39' W 122°45'0 0.0
2018-Jul-14 02:28N 45°39' W 122°45'0 0.0
2018-Jul-14 01:37N 45°39' W 122°45'0 0.0
2018-Jul-14 01:22N 45°39' W 122°45'0 0.0
2018-Jul-14 00:58N 45°39' W 122°45'1 2.7
2018-Jul-14 00:30N 45°40' W 122°46'1 1.7
2018-Jul-13 23:48N 45°39' W 122°45'0 0.0
2018-Jul-13 23:27N 45°39' W 122°45'0 0.0
2018-Jul-13 22:57N 45°39' W 122°45'0 0.0
2018-Jul-13 22:24N 45°39' W 122°45'0 0.0
2018-Jul-13 22:00N 45°39' W 122°45'0 0.0
2018-Jul-13 21:30N 45°39' W 122°45'0 0.0
2018-Jul-13 21:00N 45°39' W 122°45'0 0.0
2018-Jul-13 20:15N 45°39' W 122°45'0 0.0
2018-Jul-13 20:00N 45°39' W 122°45'0 0.0
2018-Jul-13 19:30N 45°39' W 122°45'0 0.0
2018-Jul-13 19:00N 45°39' W 122°45'0 0.0
2018-Jul-13 18:30N 45°39' W 122°45'0 0.0
2018-Jul-13 17:58N 45°39' W 122°45'0 0.0
2018-Jul-13 17:30N 45°39' W 122°45'0 0.0
2018-Jul-13 16:54N 45°39' W 122°45'0 0.0
2018-Jul-13 16:27N 45°39' W 122°45'0 0.0
2018-Jul-13 15:51N 45°39' W 122°45'0 0.0
2018-Jul-13 15:30N 45°39' W 122°45'0 0.0
2018-Jul-13 14:59N 45°39' W 122°45'0 0.0
2018-Jul-13 13:51N 45°39' W 122°45'0 0.0
2018-Jul-13 13:30N 45°39' W 122°45'0 0.0
2018-Jul-13 12:51N 45°39' W 122°45'0 0.0
2018-Jul-13 12:18N 45°39' W 122°45'0 0.0
2018-Jul-13 12:00N 45°39' W 122°45'0 0.0
2018-Jul-13 11:18N 45°39' W 122°45'0 0.0
2018-Jul-13 10:54N 45°39' W 122°45'0 0.0
2018-Jul-13 10:30N 45°39' W 122°45'0 0.0
2018-Jul-13 10:00N 45°39' W 122°45'0 0.0
2018-Jul-13 09:27N 45°39' W 122°45'0 0.0
2018-Jul-13 08:59N 45°39' W 122°45'0 0.0
2018-Jul-13 08:30N 45°39' W 122°45'0 0.0
2018-Jul-13 07:57N 45°39' W 122°45'0 0.0
2018-Jul-13 07:30N 45°39' W 122°45'0 0.0
2018-Jul-13 06:53N 45°39' W 122°45'0 0.0
2018-Jul-13 06:24N 45°39' W 122°45'0 0.0
2018-Jul-13 05:56N 45°39' W 122°45'0 0.0
2018-Jul-13 05:24N 45°39' W 122°45'0 0.0
2018-Jul-13 04:57N 45°39' W 122°45'0 0.0
2018-Jul-13 04:29N 45°39' W 122°45'0 0.0
2018-Jul-13 04:00N 45°39' W 122°45'0 0.0
2018-Jul-13 03:30N 45°39' W 122°45'0 0.0
2018-Jul-13 03:00N 45°39' W 122°45'0 0.0
2018-Jul-13 02:24N 45°39' W 122°45'0 0.0
2018-Jul-13 01:57N 45°39' W 122°45'0 0.0
2018-Jul-13 00:39N 45°39' W 122°45'0 0.0
2018-Jul-13 00:26N 45°39' W 122°45'0 0.0
2018-Jul-12 23:48N 45°39' W 122°45'0 0.0
2018-Jul-12 23:21N 45°39' W 122°45'0 0.0
2018-Jul-12 22:50N 45°39' W 122°45'0 0.0
2018-Jul-12 22:30N 45°39' W 122°45'0 0.0
2018-Jul-12 22:00N 45°39' W 122°45'0 0.0
2018-Jul-12 21:09N 45°39' W 122°45'0 0.0
2018-Jul-12 20:56N 45°39' W 122°45'0 0.0
2018-Jul-12 20:29N 45°39' W 122°45'0 0.0
2018-Jul-12 19:32N 45°39' W 122°45'0 0.1
2018-Jul-12 19:27N 45°39' W 122°45'0 0.0
2018-Jul-12 18:56N 45°39' W 122°45'0 0.0
2018-Jul-12 18:20N 45°39' W 122°45'0 0.0
2018-Jul-12 17:56N 45°39' W 122°45'0 0.0
2018-Jul-12 17:18N 45°39' W 122°45'0 0.0
2018-Jul-12 16:56N 45°39' W 122°45'0 0.0
2018-Jul-12 16:30N 45°39' W 122°45'0 0.0
2018-Jul-12 15:57N 45°39' W 122°45'0 0.0
2018-Jul-12 15:26N 45°39' W 122°45'0 0.0
2018-Jul-12 14:44N 45°39' W 122°45'0 0.0
2018-Jul-12 14:14N 45°39' W 122°45'0 0.0
2018-Jul-12 13:53N 45°39' W 122°45'0 0.0
2018-Jul-12 13:24N 45°39' W 122°45'0 0.0
2018-Jul-12 13:00N 45°39' W 122°45'0 0.0
2018-Jul-12 12:09N 45°39' W 122°45'0 0.0
2018-Jul-12 12:00N 45°39' W 122°45'0 0.0
2018-Jul-12 11:27N 45°39' W 122°45'0 0.0
2018-Jul-12 10:33N 45°39' W 122°45'0 0.0
2018-Jul-12 10:20N 45°39' W 122°45'0 0.0
2018-Jul-12 09:45N 45°39' W 122°45'0 0.0
2018-Jul-12 09:29N 45°39' W 122°45'0 0.0
2018-Jul-12 08:44N 45°39' W 122°45'0 0.0
2018-Jul-12 07:39N 45°39' W 122°45'0 0.0
2018-Jul-12 07:29N 45°39' W 122°45'0 0.0
2018-Jul-12 06:56N 45°39' W 122°45'0 0.0
2018-Jul-12 06:27N 45°39' W 122°45'0 0.0
2018-Jul-12 06:00N 45°39' W 122°45'0 0.0
2018-Jul-12 05:20N 45°39' W 122°45'0 0.0
2018-Jul-12 04:50N 45°39' W 122°45'0 0.0
2018-Jul-12 04:15N 45°39' W 122°45'0 0.0
2018-Jul-12 03:44N 45°39' W 122°45'0 0.0
2018-Jul-12 02:44N 45°39' W 122°45'0 0.0
2018-Jul-12 02:20N 45°39' W 122°45'0 0.0
2018-Jul-12 01:53N 45°39' W 122°45'0 0.0
2018-Jul-12 01:26N 45°39' W 122°45'0 0.0
2018-Jul-12 00:56N 45°39' W 122°45'0 0.0
2018-Jul-12 00:27N 45°39' W 122°45'0 0.0
2018-Jul-11 23:59N 45°39' W 122°45'0 0.0
2018-Jul-11 23:23N 45°39' W 122°45'0 0.0
2018-Jul-11 22:51N 45°39' W 122°45'0 0.0
2018-Jul-11 21:51N 45°39' W 122°45'0 0.0
2018-Jul-11 21:20N 45°39' W 122°45'0 0.0
2018-Jul-11 20:50N 45°39' W 122°45'0 0.0
2018-Jul-11 20:30N 45°39' W 122°45'0 0.0
2018-Jul-11 19:53N 45°39' W 122°45'0 0.0
2018-Jul-11 19:24N 45°39' W 122°45'0 0.0
2018-Jul-11 19:00N 45°39' W 122°45'0 0.0
2018-Jul-11 18:29N 45°39' W 122°45'0 0.0
2018-Jul-11 17:56N 45°39' W 122°45'0 0.0
2018-Jul-11 17:29N 45°39' W 122°45'0 0.0
2018-Jul-11 16:47N 45°39' W 122°45'0 0.0
2018-Jul-11 16:29N 45°39' W 122°45'0 0.0
2018-Jul-11 16:00N 45°39' W 122°45'0 0.0
2018-Jul-11 15:26N 45°39' W 122°45'0 0.0
2018-Jul-11 14:59N 45°39' W 122°45'0 0.0
2018-Jul-11 14:23N 45°39' W 122°45'0 0.0
2018-Jul-11 13:59N 45°39' W 122°45'0 0.0
2018-Jul-11 13:29N 45°39' W 122°45'0 0.0
2018-Jul-11 12:59N 45°39' W 122°45'0 0.0
2018-Jul-11 12:29N 45°39' W 122°45'0 0.0
2018-Jul-11 11:59N 45°39' W 122°45'0 0.0
2018-Jul-11 11:26N 45°39' W 122°45'0 0.0
2018-Jul-11 10:56N 45°39' W 122°45'0 0.0
2018-Jul-11 10:17N 45°39' W 122°45'0 0.0
2018-Jul-11 09:56N 45°39' W 122°45'0 0.0
2018-Jul-11 09:26N 45°39' W 122°45'0 0.0
2018-Jul-11 08:59N 45°39' W 122°45'0 0.0
2018-Jul-11 08:26N 45°39' W 122°45'0 0.0
2018-Jul-11 07:59N 45°39' W 122°45'0 0.0
2018-Jul-11 07:29N 45°39' W 122°45'0 0.0
2018-Jul-11 06:56N 45°39' W 122°45'0 0.0
2018-Jul-11 06:20N 45°39' W 122°45'0 0.0
2018-Jul-11 05:59N 45°39' W 122°45'0 0.0
2018-Jul-11 05:29N 45°39' W 122°45'0 0.0
2018-Jul-11 04:38N 45°39' W 122°45'0 0.0
2018-Jul-11 04:29N 45°39' W 122°45'0 0.0
2018-Jul-11 03:59N 45°39' W 122°45'0 0.0
2018-Jul-11 03:20N 45°39' W 122°45'0 0.0
2018-Jul-11 02:59N 45°39' W 122°45'0 0.0
2018-Jul-11 02:20N 45°39' W 122°45'0 0.0
2018-Jul-11 01:59N 45°39' W 122°45'0 0.0
2018-Jul-11 01:29N 45°39' W 122°45'0 0.0
2018-Jul-11 00:59N 45°39' W 122°45'0 0.0
2018-Jul-11 00:23N 45°39' W 122°45'0 0.0
2018-Jul-10 23:59N 45°39' W 122°45'0 0.0
2018-Jul-10 23:29N 45°39' W 122°45'0 0.0
2018-Jul-10 22:59N 45°39' W 122°45'0 0.0
2018-Jul-10 22:29N 45°39' W 122°45'0 0.0
2018-Jul-10 21:59N 45°39' W 122°45'0 0.0
2018-Jul-10 21:29N 45°39' W 122°45'0 0.0
2018-Jul-10 20:59N 45°39' W 122°45'0 0.0
2018-Jul-10 20:29N 45°39' W 122°45'0 0.0
2018-Jul-10 19:59N 45°39' W 122°45'0 0.0
2018-Jul-10 19:29N 45°39' W 122°45'0 0.0
2018-Jul-10 18:53N 45°39' W 122°45'0 0.0
2018-Jul-10 18:29N 45°39' W 122°45'0 0.0
2018-Jul-10 17:47N 45°39' W 122°45'0 0.0
2018-Jul-10 17:29N 45°39' W 122°45'0 0.0
2018-Jul-10 16:59N 45°39' W 122°45'0 0.0
2018-Jul-10 16:11N 45°39' W 122°45'0 0.0
2018-Jul-10 15:56N 45°39' W 122°45'0 0.0
2018-Jul-10 15:29N 45°39' W 122°45'0 0.0
2018-Jul-10 14:59N 45°39' W 122°45'0 0.0
2018-Jul-10 14:23N 45°39' W 122°45'0 0.0
2018-Jul-10 13:59N 45°39' W 122°45'0 0.0
2018-Jul-10 13:23N 45°39' W 122°45'0 0.0
2018-Jul-10 12:59N 45°39' W 122°45'0 0.0
2018-Jul-10 12:29N 45°39' W 122°45'0 0.0
2018-Jul-10 11:59N 45°39' W 122°45'0 0.0
2018-Jul-10 11:29N 45°39' W 122°45'0 0.0
2018-Jul-10 10:53N 45°39' W 122°45'0 0.0
2018-Jul-10 10:23N 45°39' W 122°45'0 0.0
2018-Jul-10 09:23N 45°39' W 122°45'0 0.0
2018-Jul-10 08:53N 45°39' W 122°45'0 0.0
2018-Jul-10 08:29N 45°39' W 122°45'0 0.0
2018-Jul-10 07:38N 45°39' W 122°45'0 0.0
2018-Jul-10 07:29N 45°39' W 122°45'0 0.0
2018-Jul-10 06:56N 45°39' W 122°45'0 0.0
2018-Jul-10 06:08N 45°39' W 122°45'0 0.1
2018-Jul-10 05:59N 45°39' W 122°45'0 0.0
2018-Jul-10 05:26N 45°39' W 122°45'0 0.0
2018-Jul-10 04:59N 45°39' W 122°45'0 0.0
2018-Jul-10 04:14N 45°39' W 122°45'0 0.0
2018-Jul-10 03:53N 45°39' W 122°45'0 0.0
2018-Jul-10 03:20N 45°39' W 122°45'0 0.0
2018-Jul-10 02:59N 45°39' W 122°45'0 0.0
2018-Jul-10 02:11N 45°39' W 122°45'0 0.0
2018-Jul-10 01:41N 45°39' W 122°45'0 0.0
2018-Jul-10 01:29N 45°39' W 122°45'0 0.0
2018-Jul-10 00:53N 45°39' W 122°45'0 0.0
2018-Jul-10 00:26N 45°39' W 122°45'0 0.0
2018-Jul-09 23:56N 45°39' W 122°45'0 0.0
2018-Jul-09 23:26N 45°39' W 122°45'0 0.0
2018-Jul-09 22:59N 45°39' W 122°45'0 0.0
2018-Jul-09 22:26N 45°39' W 122°45'0 0.0
2018-Jul-09 21:59N 45°39' W 122°45'0 0.0
2018-Jul-09 20:59N 45°39' W 122°45'0 0.0
2018-Jul-09 20:26N 45°39' W 122°45'0 0.0
2018-Jul-09 19:53N 45°39' W 122°45'0 0.0
2018-Jul-09 19:29N 45°39' W 122°45'0 0.0
2018-Jul-09 18:56N 45°39' W 122°45'0 0.0
2018-Jul-09 18:23N 45°39' W 122°45'0 0.0
2018-Jul-09 17:50N 45°39' W 122°45'0 0.0
2018-Jul-09 17:26N 45°39' W 122°45'0 0.0
2018-Jul-09 16:59N 45°39' W 122°45'0 0.0
2018-Jul-09 16:29N 45°39' W 122°45'0 0.0
2018-Jul-09 15:56N 45°39' W 122°45'0 0.0
2018-Jul-09 15:23N 45°39' W 122°45'0 0.0
2018-Jul-09 14:53N 45°39' W 122°45'0 0.0
2018-Jul-09 14:20N 45°39' W 122°45'0 0.0
2018-Jul-09 13:53N 45°39' W 122°45'0 0.0
2018-Jul-09 13:29N 45°39' W 122°45'0 0.0
2018-Jul-09 12:56N 45°39' W 122°45'0 0.0
2018-Jul-09 12:23N 45°39' W 122°45'0 0.0
2018-Jul-09 11:59N 45°39' W 122°45'0 0.0
2018-Jul-09 11:26N 45°39' W 122°45'0 0.0
2018-Jul-09 10:59N 45°39' W 122°45'0 0.0
2018-Jul-09 10:20N 45°39' W 122°45'0 0.0
2018-Jul-09 09:59N 45°39' W 122°45'0 0.0
2018-Jul-09 09:26N 45°39' W 122°45'0 0.0
2018-Jul-09 08:59N 45°39' W 122°45'0 0.0
2018-Jul-09 08:29N 45°39' W 122°45'0 0.0
2018-Jul-09 07:59N 45°39' W 122°45'0 0.0
2018-Jul-09 07:29N 45°39' W 122°45'0 0.0
2018-Jul-09 06:56N 45°39' W 122°45'0 0.0
2018-Jul-09 06:26N 45°39' W 122°45'0 0.0
2018-Jul-09 05:44N 45°39' W 122°45'0 0.0
2018-Jul-09 05:23N 45°39' W 122°45'0 0.0
2018-Jul-09 04:59N 45°39' W 122°45'1 2.2
2018-Jul-09 04:19N 45°38' W 122°43'0 0.0
2018-Jul-09 04:00N 45°38' W 122°43'0 0.1
2018-Jul-09 03:25N 45°38' W 122°43'1 2.7
2018-Jul-09 02:52N 45°39' W 122°45'0 0.0
2018-Jul-09 02:28N 45°39' W 122°45'0 0.0
2018-Jul-09 01:58N 45°39' W 122°45'0 0.0
2018-Jul-09 01:10N 45°39' W 122°45'0 0.0
2018-Jul-09 00:37N 45°39' W 122°45'0 0.0
2018-Jul-09 00:25N 45°39' W 122°45'0 0.0
2018-Jul-08 23:31N 45°39' W 122°45'0 0.0
2018-Jul-08 23:28N 45°39' W 122°45'0 0.0
2018-Jul-08 22:58N 45°39' W 122°45'0 0.0
2018-Jul-08 22:25N 45°39' W 122°45'0 0.0
2018-Jul-08 21:52N 45°39' W 122°45'0 0.0
2018-Jul-08 21:19N 45°39' W 122°45'0 0.0
2018-Jul-08 20:58N 45°39' W 122°45'0 0.0
2018-Jul-08 20:22N 45°39' W 122°45'0 0.0
2018-Jul-08 19:58N 45°39' W 122°45'0 0.0
2018-Jul-08 19:28N 45°39' W 122°45'0 0.0
2018-Jul-08 18:55N 45°39' W 122°45'0 0.0
2018-Jul-08 18:16N 45°39' W 122°45'0 0.0
2018-Jul-08 17:55N 45°39' W 122°45'0 0.0
2018-Jul-08 17:25N 45°39' W 122°45'0 0.0
2018-Jul-08 16:52N 45°39' W 122°45'0 0.0
2018-Jul-08 16:13N 45°39' W 122°45'0 0.0
2018-Jul-08 15:52N 45°39' W 122°45'0 0.0
2018-Jul-08 15:16N 45°39' W 122°45'0 0.0
2018-Jul-08 14:58N 45°39' W 122°45'0 0.0
2018-Jul-08 14:28N 45°39' W 122°45'0 0.0
2018-Jul-08 13:52N 45°39' W 122°45'0 0.0
2018-Jul-08 13:28N 45°39' W 122°45'0 0.0
2018-Jul-08 12:55N 45°39' W 122°45'0 0.0
2018-Jul-08 12:28N 45°39' W 122°45'0 0.0
2018-Jul-08 11:49N 45°39' W 122°45'0 0.0
2018-Jul-08 11:22N 45°39' W 122°45'0 0.0
2018-Jul-08 10:58N 45°39' W 122°45'0 0.0
2018-Jul-08 10:16N 45°39' W 122°45'0 0.0
2018-Jul-08 09:55N 45°39' W 122°45'0 0.0
2018-Jul-08 09:22N 45°39' W 122°45'0 0.0
2018-Jul-08 08:46N 45°39' W 122°45'0 0.0
2018-Jul-08 08:22N 45°39' W 122°45'0 0.0
2018-Jul-08 07:43N 45°39' W 122°45'0 0.0
2018-Jul-08 07:16N 45°39' W 122°45'413.7
2018-Jul-08 06:59N 45°42' W 122°46'4 7.4
2018-Jul-08 06:28N 45°39' W 122°45'0 0.0
2018-Jul-08 05:52N 45°39' W 122°45'0 0.0
2018-Jul-08 05:28N 45°39' W 122°45'0 0.0
2018-Jul-08 04:58N 45°39' W 122°45'0 0.0
2018-Jul-08 04:22N 45°39' W 122°45'0 0.0
2018-Jul-08 03:55N 45°39' W 122°45'0 0.0
2018-Jul-08 03:28N 45°39' W 122°45'0 0.0
2018-Jul-08 02:43N 45°39' W 122°45'0 0.0
2018-Jul-08 02:25N 45°39' W 122°45'0 0.0
2018-Jul-08 01:58N 45°39' W 122°45'4 8.1
2018-Jul-08 01:30N 45°37' W 122°40'2 3.9
2018-Jul-08 01:00N 45°36' W 122°38'0 0.2
2018-Jul-08 00:30N 45°36' W 122°38'0 0.0
2018-Jul-08 00:00N 45°36' W 122°38'2 4.8
2018-Jul-07 23:30N 45°37' W 122°41'1 1.1
2018-Jul-07 22:23N 45°36' W 122°40'0 0.0
2018-Jul-07 21:59N 45°36' W 122°40'0 0.0
2018-Jul-07 21:23N 45°36' W 122°40'0 0.0
2018-Jul-07 20:53N 45°36' W 122°40'1 1.8
2018-Jul-07 20:30N 45°37' W 122°39'1 1.9
2018-Jul-07 19:59N 45°37' W 122°41'3 6.5
2018-Jul-07 19:30N 45°39' W 122°45'4 5.9
2018-Jul-07 18:48N 45°43' W 122°46'414.2
2018-Jul-07 18:30N 45°39' W 122°45'0 0.1
2018-Jul-07 18:00N 45°39' W 122°45'0 0.0
2018-Jul-07 17:30N 45°39' W 122°45'0 0.0
2018-Jul-07 17:00N 45°39' W 122°45'0 0.0
2018-Jul-07 16:29N 45°39' W 122°45'0 0.0
2018-Jul-07 15:56N 45°39' W 122°45'0 0.0
2018-Jul-07 15:30N 45°39' W 122°45'0 0.0
2018-Jul-07 15:00N 45°39' W 122°45'0 0.0
2018-Jul-07 14:31N 45°39' W 122°45'0 0.0
2018-Jul-07 14:00N 45°39' W 122°45'0 0.0
2018-Jul-07 12:49N 45°39' W 122°45'0 0.0
2018-Jul-07 12:30N 45°39' W 122°45'0 0.0
2018-Jul-07 12:00N 45°39' W 122°45'0 0.1
2018-Jul-07 11:30N 45°39' W 122°45'0 0.1
2018-Jul-07 10:40N 45°39' W 122°45'0 0.0
2018-Jul-07 10:28N 45°39' W 122°45'  

Dump ship's entire track history